Time;durP1;ratioP1;P1;durP2;ratioP2;P2;SDS_P1;SDS_P2;PMS_P1;PMS_P2;Temp;Humidity;BMP_temperature;BMP_pressure;BME280_temperature;BME280_humidity;BME280_pressure;Samples;Min_cycle;Max_cycle;Signal;HPM_P1;HPM_P2
2022/06/30 00:00:00;;;;;;;5.43;4.93;;;;;;;20.94;54.63;101129.72;5057569;28;20429;-71
2022/06/30 00:02:25;;;;;;;8.60;5.23;;;;;;;20.97;54.57;101124.31;5057113;28;20547;-69
2022/06/30 00:04:51;;;;;;;5.27;4.77;;;;;;;20.97;54.70;101119.00;5056947;28;20205;-70
2022/06/30 00:07:17;;;;;;;8.37;4.60;;;;;;;21.19;53.69;101120.16;5057765;28;20160;-70
2022/06/30 00:09:42;;;;;;;4.67;4.27;;;;;;;21.15;54.23;101123.81;5057846;28;20177;-69
2022/06/30 00:12:08;;;;;;;5.37;4.87;;;;;;;20.98;54.72;101126.91;5057761;28;20419;-69
2022/06/30 00:14:33;;;;;;;5.23;4.83;;;;;;;21.14;54.46;101115.91;5057815;28;20162;-70
2022/06/30 00:16:59;;;;;;;5.40;4.90;;;;;;;20.98;55.23;101126.06;5057802;28;20177;-70
2022/06/30 00:19:24;;;;;;;4.93;4.43;;;;;;;20.86;54.88;101116.66;5057853;28;20185;-69
2022/06/30 00:21:49;;;;;;;4.73;4.33;;;;;;;21.33;54.56;101105.63;5058369;28;20177;-69
2022/06/30 00:24:15;;;;;;;5.40;4.83;;;;;;;21.16;54.61;101104.34;5057431;28;20288;-68
2022/06/30 00:26:40;;;;;;;5.17;4.67;;;;;;;20.84;55.03;101110.56;5057873;28;20208;-69
2022/06/30 00:29:05;;;;;;;6.03;4.40;;;;;;;20.46;56.44;101110.63;5058256;28;20547;-69
2022/06/30 00:31:31;;;;;;;5.13;4.73;;;;;;;20.83;55.05;101095.56;5058085;28;20471;-69
2022/06/30 00:33:56;;;;;;;5.93;5.07;;;;;;;20.94;55.67;101101.41;5057736;28;20177;-70
2022/06/30 00:36:22;;;;;;;5.23;4.73;;;;;;;20.58;56.04;101108.53;5058193;28;20489;-69
2022/06/30 00:38:47;;;;;;;5.57;5.07;;;;;;;21.05;55.54;101106.41;5057679;28;20219;-69
2022/06/30 00:41:12;;;;;;;5.83;4.80;;;;;;;20.92;55.92;101108.56;5057662;28;20203;-69
2022/06/30 00:43:43;;;;;;;4.80;4.50;;;;;;;20.79;56.18;101105.34;5057835;28;20512;-69
2022/06/30 00:46:08;;;;;;;5.97;5.47;;;;;;;20.72;56.54;101098.50;5057531;28;20260;-69
2022/06/30 00:48:34;;;;;;;5.53;4.70;;;;;;;21.27;54.69;101087.22;5057761;28;20494;-69
2022/06/30 00:50:59;;;;;;;5.73;5.13;;;;;;;21.47;54.02;101086.66;5057944;28;20494;-69
2022/06/30 00:53:25;;;;;;;5.30;4.80;;;;;;;21.40;53.80;101085.09;5056786;28;20169;-70
2022/06/30 00:55:51;;;;;;;5.63;5.13;;;;;;;20.87;55.58;101083.94;5056651;28;20174;-70
2022/06/30 00:58:19;;;;;;;5.60;5.20;;;;;;;20.81;56.38;101081.47;5057056;28;20249;-69
2022/06/30 01:00:46;;;;;;;6.20;5.60;;;;;;;20.98;55.97;101088.97;5040506;28;20820;-68
2022/06/30 01:03:11;;;;;;;5.40;4.90;;;;;;;21.07;55.40;101083.41;5036451;28;20419;-68
2022/06/30 01:05:37;;;;;;;6.67;5.40;;;;;;;21.12;55.77;101085.91;5037826;28;20397;-69
2022/06/30 01:08:03;;;;;;;6.23;5.70;;;;;;;21.07;55.71;101088.69;5037490;28;20166;-70
2022/06/30 01:13:13;;;;;;;6.37;5.63;;;;;;;21.02;56.00;101083.50;5039782;28;20429;-69
2022/06/30 01:15:38;;;;;;;5.87;5.33;;;;;;;20.80;56.71;101085.91;5039948;28;20763;-70
2022/06/30 01:18:05;;;;;;;6.03;5.33;;;;;;;21.25;55.50;101076.69;5041364;28;20170;-69
2022/06/30 01:20:32;;;;;;;5.97;5.27;;;;;;;20.86;57.00;101072.50;5040945;28;20169;-69
2022/06/30 01:22:58;;;;;;;5.80;5.30;;;;;;;20.85;56.83;101062.81;5040677;28;20417;-69
2022/06/30 01:25:24;;;;;;;6.33;5.63;;;;;;;20.70;57.29;101055.25;5041072;28;20441;-70
2022/06/30 01:27:50;;;;;;;7.90;5.40;;;;;;;20.55;57.61;101063.59;5040596;28;20689;-71
2022/06/30 01:30:15;;;;;;;6.40;5.80;;;;;;;20.84;57.60;101054.91;5040708;28;20170;-70
2022/06/30 01:32:41;;;;;;;5.97;5.47;;;;;;;20.24;58.44;101059.09;5040811;28;20419;-70
2022/06/30 01:35:07;;;;;;;6.20;5.60;;;;;;;20.11;59.28;101062.06;5040489;28;20420;-70
2022/06/30 01:37:55;;;;;;;6.03;5.40;;;;;;;20.56;58.05;101052.97;5040413;28;20170;-69
2022/06/30 01:40:23;;;;;;;5.77;5.37;;;;;;;19.80;60.42;101060.16;5040380;28;20420;-70
2022/06/30 01:42:49;;;;;;;6.43;5.83;;;;;;;20.10;60.17;101052.38;5040202;28;20388;-70
2022/06/30 01:45:15;;;;;;;8.53;6.17;;;;;;;20.00;60.01;101046.47;5040221;28;20475;-70
2022/06/30 01:47:41;;;;;;;6.80;6.10;;;;;;;20.23;59.40;101046.78;5040271;28;20806;-72
2022/06/30 01:50:19;;;;;;;6.57;5.73;;;;;;;20.71;58.70;101043.75;5040691;28;20536;-70
2022/06/30 01:52:44;;;;;;;9.97;5.87;;;;;;;20.39;59.45;101053.44;5040168;28;20248;-70
2022/06/30 01:55:10;;;;;;;7.10;6.00;;;;;;;20.88;57.68;101043.31;5040278;28;20423;-69
2022/06/30 01:57:36;;;;;;;6.57;5.97;;;;;;;20.83;57.48;101045.22;5040063;28;20212;-69
2022/06/30 02:00:08;;;;;;;6.80;6.20;;;;;;;20.80;57.61;101048.81;5040178;28;20417;-69
2022/06/30 02:02:33;;;;;;;6.10;5.60;;;;;;;20.30;59.18;101048.38;5040565;28;20273;-70
2022/06/30 02:04:59;;;;;;;5.80;5.40;;;;;;;19.44;62.06;101061.84;5039079;28;20476;-69
2022/06/30 02:07:24;;;;;;;6.93;6.33;;;;;;;19.62;61.60;101056.16;5039987;28;20253;-70
2022/06/30 02:09:53;;;;;;;6.40;5.90;;;;;;;19.64;62.01;101056.13;5040455;28;20174;-71
2022/06/30 02:15:04;;;;;;;7.77;5.70;;;;;;;19.83;61.21;101056.59;5039859;28;20484;-69
2022/06/30 02:17:30;;;;;;;5.83;5.37;;;;;;;19.57;62.19;101042.16;5039825;28;20452;-69
2022/06/30 02:19:55;;;;;;;7.10;5.90;;;;;;;19.74;61.76;101055.00;5039752;28;20413;-69
2022/06/30 02:22:21;;;;;;;7.10;5.73;;;;;;;19.51;62.30;101051.09;5040066;28;20229;-69
2022/06/30 02:24:46;;;;;;;6.57;5.80;;;;;;;19.80;62.01;101051.34;5038718;28;20480;-69
2022/06/30 02:27:12;;;;;;;5.97;5.47;;;;;;;19.60;62.70;101054.44;5039840;28;20197;-69
2022/06/30 02:29:37;;;;;;;8.40;6.40;;;;;;;19.45;62.75;101045.94;5040059;28;20216;-69
2022/06/30 02:32:03;;;;;;;6.10;5.63;;;;;;;19.55;63.26;101041.31;5039616;28;20170;-70
2022/06/30 02:34:28;;;;;;;6.60;6.10;;;;;;;19.50;62.51;101046.72;5039563;28;20174;-69
2022/06/30 02:36:55;;;;;;;6.33;5.83;;;;;;;19.38;63.47;101051.44;5039868;28;20162;-69
2022/06/30 02:39:20;;;;;;;7.00;6.43;;;;;;;19.12;64.01;101061.66;5039526;28;20245;-69
2022/06/30 02:41:46;;;;;;;6.93;6.13;;;;;;;19.26;64.19;101052.56;5039440;28;20802;-69
2022/06/30 02:44:11;;;;;;;6.60;5.90;;;;;;;19.33;64.03;101059.44;5039587;28;20527;-68
2022/06/30 02:46:37;;;;;;;6.67;6.17;;;;;;;19.42;63.67;101050.44;5039235;28;20584;-68
2022/06/30 02:49:02;;;;;;;6.97;6.40;;;;;;;19.25;64.41;101050.81;5038624;28;20254;-70
2022/06/30 02:51:27;;;;;;;6.63;6.10;;;;;;;19.11;65.00;101046.69;5039501;28;20185;-71
2022/06/30 02:53:53;;;;;;;9.00;6.13;;;;;;;19.44;64.04;101041.56;5038980;28;20171;-70
2022/06/30 02:56:18;;;;;;;6.60;6.00;;;;;;;19.22;64.70;101037.66;5039220;28;20249;-70
2022/06/30 02:58:44;;;;;;;6.57;5.90;;;;;;;19.04;65.22;101045.06;5039307;28;20166;-70
2022/06/30 03:01:09;;;;;;;7.00;6.43;;;;;;;18.98;65.51;101048.72;5038978;28;20221;-69
2022/06/30 03:03:34;;;;;;;7.27;6.47;;;;;;;18.99;65.50;101054.88;5038832;28;20210;-69
2022/06/30 03:06:00;;;;;;;6.63;5.80;;;;;;;18.92;65.62;101043.56;5039242;28;20196;-70
2022/06/30 03:08:25;;;;;;;7.23;5.80;;;;;;;18.97;65.48;101041.69;5038890;28;20216;-70
2022/06/30 03:10:51;;;;;;;8.20;6.63;;;;;;;19.26;65.08;101026.13;5038660;28;20185;-69
2022/06/30 03:13:16;;;;;;;6.83;6.27;;;;;;;18.99;66.14;101033.72;5039276;28;20162;-70
2022/06/30 03:15:41;;;;;;;6.83;6.13;;;;;;;19.12;65.34;101027.28;5038551;28;20222;-70
2022/06/30 03:18:10;;;;;;;8.20;6.20;;;;;;;19.41;64.88;101028.41;5038630;28;20292;-71
2022/06/30 03:20:35;;;;;;;6.57;5.97;;;;;;;19.07;65.49;101038.88;5038865;28;20178;-69
2022/06/30 03:23:01;;;;;;;6.40;5.90;;;;;;;18.93;65.96;101029.44;5038418;28;20478;-70
2022/06/30 03:25:26;;;;;;;7.30;6.60;;;;;;;19.35;65.04;101028.56;5038408;28;20293;-70
2022/06/30 03:27:52;;;;;;;6.57;6.10;;;;;;;19.19;65.57;101026.25;5038795;28;20205;-69
2022/06/30 03:30:17;;;;;;;9.30;6.97;;;;;;;19.43;65.00;101029.25;5038417;28;20253;-69
2022/06/30 03:32:42;;;;;;;8.37;6.40;;;;;;;18.95;66.31;101032.91;5038340;28;20178;-69
2022/06/30 03:35:09;;;;;;;6.33;5.73;;;;;;;19.16;65.48;101033.38;5038519;28;20296;-69
2022/06/30 03:37:34;;;;;;;6.63;6.13;;;;;;;19.43;64.84;101023.97;5038166;28;20174;-69
2022/06/30 03:40:00;;;;;;;6.70;6.17;;;;;;;19.34;64.46;101029.47;5038300;28;20965;-69
2022/06/30 03:42:25;;;;;;;8.00;6.33;;;;;;;19.76;63.95;101018.78;5038664;28;20181;-70
2022/06/30 03:44:50;;;;;;;6.53;6.03;;;;;;;19.71;64.25;101025.97;5037985;28;20477;-69
2022/06/30 03:47:16;;;;;;;8.20;6.30;;;;;;;20.20;62.49;101021.25;5038222;28;20246;-69
2022/06/30 03:49:42;;;;;;;6.80;6.20;;;;;;;20.25;61.65;101010.56;5038708;28;20182;-69
2022/06/30 03:52:07;;;;;;;6.93;6.33;;;;;;;20.25;62.17;101016.69;5038149;28;20271;-69
2022/06/30 03:54:33;;;;;;;7.00;5.43;;;;;;;20.05;62.69;101019.88;5037361;28;20189;-69
2022/06/30 03:56:58;;;;;;;6.50;6.00;;;;;;;20.70;61.86;101010.22;5038610;28;20521;-69
2022/06/30 03:59:23;;;;;;;8.33;5.97;;;;;;;20.43;61.62;101009.19;5038004;28;20194;-69
2022/06/30 04:01:49;;;;;;;6.73;6.00;;;;;;;20.69;60.52;101005.88;5037973;28;20449;-70
2022/06/30 04:04:14;;;;;;;6.17;5.57;;;;;;;20.76;60.78;100995.97;5038189;28;20205;-69
2022/06/30 04:06:40;;;;;;;6.63;5.97;;;;;;;21.01;60.07;101002.28;5038004;28;20170;-69
2022/06/30 04:09:05;;;;;;;6.60;5.93;;;;;;;21.19;58.97;101003.50;5037950;28;20517;-69
2022/06/30 04:11:30;;;;;;;8.00;5.17;;;;;;;21.83;56.92;100999.72;5037738;28;20174;-69
2022/06/30 04:13:56;;;;;;;6.37;5.87;;;;;;;23.12;53.83;100996.03;5037728;28;20181;-70
2022/06/30 04:16:21;;;;;;;8.20;6.17;;;;;;;22.67;54.48;100996.88;5037765;28;20222;-69
2022/06/30 04:18:47;;;;;;;6.43;5.63;;;;;;;23.45;53.27;100989.47;5038211;28;20177;-69
2022/06/30 04:21:15;;;;;;;6.10;5.40;;;;;;;24.29;50.56;100982.44;5037839;28;20178;-70
2022/06/30 04:23:41;;;;;;;5.97;5.40;;;;;;;23.48;51.85;100987.56;5039033;28;20448;-69
2022/06/30 04:26:06;;;;;;;5.60;5.10;;;;;;;23.76;51.69;100982.91;5048655;28;20717;-69
2022/06/30 04:28:31;;;;;;;5.30;4.90;;;;;;;22.62;54.75;100996.16;5049120;28;20206;-70
2022/06/30 04:33:40;;;;;;;5.90;5.27;;;;;;;22.81;54.18;100994.56;5056321;28;20203;-70
2022/06/30 04:36:06;;;;;;;5.50;5.10;;;;;;;22.63;55.57;100992.59;5058094;28;20416;-70
2022/06/30 04:38:31;;;;;;;7.80;5.50;;;;;;;22.32;55.54;100996.31;5058591;28;20177;-71
2022/06/30 04:43:40;;;;;;;5.60;5.10;;;;;;;21.80;57.11;101002.50;5057450;28;20216;-67
2022/06/30 04:46:05;;;;;;;6.17;5.33;;;;;;;21.80;57.00;101002.50;5057958;28;20685;-70
2022/06/30 04:48:31;;;;;;;6.03;5.37;;;;;;;23.02;54.46;100992.03;5062938;28;20182;-70
2022/06/30 04:50:56;;;;;;;5.33;4.93;;;;;;;23.27;53.26;100983.09;5046248;28;20478;-70
2022/06/30 04:53:22;;;;;;;5.93;5.20;;;;;;;23.44;52.84;100991.28;5060171;28;20182;-69
2022/06/30 04:55:47;;;;;;;7.20;5.63;;;;;;;24.50;50.38;100983.25;5061864;28;20182;-72
2022/06/30 04:58:13;;;;;;;6.17;5.67;;;;;;;23.59;51.62;100983.63;5055194;28;20174;-69
2022/06/30 05:00:38;;;;;;;6.20;5.17;;;;;;;22.94;53.08;100989.66;5049580;28;20308;-69
2022/06/30 05:03:03;;;;;;;6.80;6.10;;;;;;;23.83;51.90;100987.06;5059099;28;20510;-70
2022/06/30 05:05:29;;;;;;;5.97;5.33;;;;;;;25.33;48.14;100985.72;5058443;28;20217;-68
2022/06/30 05:07:54;;;;;;;9.57;5.03;;;;;;;25.07;48.51;100981.63;5050337;28;20189;-69
2022/06/30 05:10:20;;;;;;;5.20;4.80;;;;;;;26.77;44.22;100981.16;5059363;28;20311;-68
2022/06/30 05:12:45;;;;;;;6.23;5.13;;;;;;;27.27;42.70;100968.56;5060034;28;20181;-69
2022/06/30 05:15:10;;;;;;;4.90;4.50;;;;;;;26.41;44.82;100984.81;5061623;28;20232;-68
2022/06/30 05:17:36;;;;;;;5.10;4.60;;;;;;;26.45;43.78;100979.22;5059901;28;20573;-69
2022/06/30 05:20:02;;;;;;;5.60;4.80;;;;;;;25.57;45.55;100988.16;5055028;28;20263;-68
2022/06/30 05:22:28;;;;;;;4.80;4.30;;;;;;;23.66;51.26;100987.75;5056931;28;20200;-69
2022/06/30 05:27:38;;;;;;;6.57;5.17;;;;;;;22.65;54.39;100996.03;5060899;28;20192;-69
2022/06/30 05:30:03;;;;;;;5.73;5.23;;;;;;;22.43;54.69;100996.81;5060785;28;20424;-69
2022/06/30 05:32:29;;;;;;;6.00;5.50;;;;;;;22.15;55.88;100997.78;5060399;28;20231;-72
2022/06/30 05:34:54;;;;;;;7.77;5.90;;;;;;;22.30;55.37;100987.53;5060125;28;20188;-72
2022/06/30 05:37:20;;;;;;;7.20;6.00;;;;;;;22.54;54.70;100997.31;5060652;28;20196;-73
2022/06/30 05:39:45;;;;;;;6.60;6.00;;;;;;;22.26;55.42;100991.22;5060254;28;20181;-70
2022/06/30 05:42:11;;;;;;;8.57;5.90;;;;;;;23.16;53.32;100984.38;5060854;28;20181;-70
2022/06/30 05:44:36;;;;;;;6.87;6.17;;;;;;;22.40;55.84;100994.28;5060730;28;20264;-69
2022/06/30 05:47:01;;;;;;;8.00;5.87;;;;;;;22.67;55.11;100988.91;5060469;28;20193;-71
2022/06/30 05:49:27;;;;;;;6.37;5.77;;;;;;;24.09;51.39;100983.31;5054673;28;20183;-75
2022/06/30 05:51:52;;;;;;;5.87;5.30;;;;;;;24.42;51.00;100982.75;5043872;28;20650;-76
2022/06/30 05:54:18;;;;;;;6.70;5.30;;;;;;;25.27;48.20;100978.03;5050729;28;21001;-75
2022/06/30 05:56:44;;;;;;;5.40;4.70;;;;;;;26.28;45.30;100985.47;5037916;28;20627;-78
2022/06/30 05:59:10;;;;;;;5.53;5.03;;;;;;;27.95;42.08;100970.84;5053657;28;20448;-77
2022/06/30 06:01:35;;;;;;;6.30;4.53;;;;;;;28.31;40.95;100969.63;5041601;28;20178;-78
2022/06/30 06:04:01;;;;;;;5.00;4.50;;;;;;;29.72;38.14;100966.03;5057883;28;20516;-77
2022/06/30 06:06:26;;;;;;;6.73;5.30;;;;;;;28.97;39.23;100966.44;5057747;28;20182;-77
2022/06/30 06:08:51;;;;;;;5.00;4.30;;;;;;;28.02;40.75;100976.72;5039696;28;20174;-77
2022/06/30 06:11:17;;;;;;;6.07;4.80;;;;;;;27.15;42.63;100976.31;5040069;28;20170;-77
2022/06/30 06:13:42;;;;;;;6.70;4.50;;;;;;;26.35;44.63;100980.66;5040482;28;20162;-77
2022/06/30 06:16:07;;;;;;;5.37;4.50;;;;;;;28.17;40.95;100965.09;5040473;28;20226;-77
2022/06/30 06:18:33;;;;;;;7.77;5.00;;;;;;;27.47;42.67;100968.31;5040367;28;20509;-77
2022/06/30 06:20:58;;;;;;;8.23;5.10;;;;;;;28.57;40.38;100961.75;5040293;28;20163;-77
2022/06/30 06:23:24;;;;;;;5.37;4.90;;;;;;;28.50;40.56;100969.34;5038695;28;20178;-76
2022/06/30 06:25:51;;;;;;;4.77;4.37;;;;;;;28.54;40.95;100965.50;5039883;28;20197;-77
2022/06/30 06:31:00;;;;;;;5.70;5.10;;;;;;;28.37;40.29;100966.56;5039982;28;20458;-76
2022/06/30 06:33:26;;;;;;;6.43;5.13;;;;;;;25.70;44.98;100978.59;5039433;28;20433;-77
2022/06/30 06:35:51;;;;;;;6.60;4.70;;;;;;;27.06;42.94;100976.84;5039788;28;20167;-76
2022/06/30 06:38:16;;;;;;;5.87;4.60;;;;;;;29.06;39.93;100974.78;5039813;28;20194;-76
2022/06/30 06:40:42;;;;;;;5.67;4.87;;;;;;;28.77;39.87;100971.28;5040308;28;20563;-77
2022/06/30 06:43:07;;;;;;;5.90;4.90;;;;;;;28.83;40.06;100962.81;5040948;28;20264;-78
2022/06/30 06:45:32;;;;;;;9.60;4.80;;;;;;;27.83;41.15;100969.78;5038920;28;20260;-78
2022/06/30 06:47:58;;;;;;;5.00;4.60;;;;;;;30.10;37.38;100970.63;5040149;28;20166;-76
2022/06/30 06:50:23;;;;;;;5.53;4.63;;;;;;;29.09;39.25;100983.56;5039431;28;20198;-76
2022/06/30 06:52:49;;;;;;;10.00;4.70;;;;;;;30.68;36.19;100972.91;5038362;28;20174;-77
2022/06/30 06:55:16;;;;;;;6.37;4.50;;;;;;;29.38;37.60;100974.50;5039653;28;20193;-77
2022/06/30 06:57:43;;;;;;;5.00;4.50;;;;;;;28.29;39.84;100976.03;5039373;28;20166;-77
2022/06/30 07:00:09;;;;;;;5.23;4.83;;;;;;;26.86;43.04;100986.84;5039244;28;20413;-77
2022/06/30 07:02:35;;;;;;;5.20;4.70;;;;;;;28.34;40.77;100977.47;5039734;28;20421;-78
2022/06/30 07:05:01;;;;;;;5.70;5.17;;;;;;;28.61;39.42;100973.16;5038919;28;20510;-78
2022/06/30 07:07:26;;;;;;;5.67;5.03;;;;;;;29.11;39.04;100971.78;5039170;28;20185;-77
2022/06/30 07:09:52;;;;;;;5.10;4.70;;;;;;;30.48;37.37;100963.56;5038533;28;20185;-77
2022/06/30 07:12:17;;;;;;;6.03;4.83;;;;;;;30.70;36.36;100962.88;5038889;28;20276;-77
2022/06/30 07:14:43;;;;;;;7.23;5.40;;;;;;;31.17;35.71;100960.41;5038486;28;20217;-77
2022/06/30 07:17:09;;;;;;;5.43;4.93;;;;;;;31.62;34.69;100959.78;5039412;28;20231;-76
2022/06/30 07:19:35;;;;;;;5.63;4.80;;;;;;;32.10;33.59;100956.09;5038646;28;20166;-78
2022/06/30 07:22:00;;;;;;;5.63;5.03;;;;;;;33.32;32.09;100957.22;5038686;28;20423;-77
2022/06/30 07:24:26;;;;;;;5.83;5.13;;;;;;;32.19;33.24;100963.50;5038833;28;20209;-77
2022/06/30 07:26:51;;;;;;;6.63;5.17;;;;;;;32.89;31.96;100959.75;5038707;28;20205;-76
2022/06/30 07:29:16;;;;;;;5.50;4.97;;;;;;;31.76;33.90;100958.72;5038683;28;20209;-77
2022/06/30 07:31:42;;;;;;;5.53;4.70;;;;;;;32.24;33.75;100962.19;5039038;28;20257;-76
2022/06/30 07:34:08;;;;;;;5.43;4.60;;;;;;;33.76;30.92;100958.00;5038332;28;20170;-76
2022/06/30 07:36:33;;;;;;;5.63;4.93;;;;;;;34.25;30.20;100952.94;5038668;28;20792;-78
2022/06/30 07:38:59;;;;;;;7.47;4.93;;;;;;;32.43;32.25;100959.88;5039117;28;20162;-77
2022/06/30 07:41:24;;;;;;;5.30;4.80;;;;;;;33.04;32.14;100959.47;5038309;28;20537;-77
2022/06/30 07:43:50;;;;;;;7.13;4.70;;;;;;;33.84;30.75;100958.25;5038026;28;20201;-77
2022/06/30 07:46:16;;;;;;;6.50;4.90;;;;;;;33.37;31.70;100960.41;5039135;28;20170;-78
2022/06/30 07:48:42;;;;;;;6.37;4.53;;;;;;;30.85;35.06;100963.59;5038475;28;20513;-77
2022/06/30 07:51:08;;;;;;;6.70;4.77;;;;;;;32.54;32.75;100957.16;5038590;28;20231;-76
2022/06/30 07:53:33;;;;;;;7.00;5.03;;;;;;;30.68;35.22;100960.28;5038754;28;20765;-77
2022/06/30 07:55:58;;;;;;;7.90;4.83;;;;;;;32.48;32.96;100947.72;5037419;28;20167;-77
2022/06/30 07:58:24;;;;;;;5.70;4.93;;;;;;;33.06;31.66;100944.00;5038230;28;20170;-77
2022/06/30 08:00:49;;;;;;;5.07;4.67;;;;;;;32.31;32.70;100953.59;5038268;28;20414;-76
2022/06/30 08:03:15;;;;;;;5.23;4.83;;;;;;;32.17;32.50;100943.91;5037638;28;20170;-76
2022/06/30 08:05:40;;;;;;;6.50;4.70;;;;;;;30.07;36.67;100950.19;5037950;28;20186;-77
2022/06/30 08:08:06;;;;;;;5.33;4.93;;;;;;;33.33;31.84;100945.44;5038235;28;20178;-77
2022/06/30 08:10:31;;;;;;;5.30;4.90;;;;;;;30.38;35.73;100948.03;5038040;28;20170;-77
2022/06/30 08:12:57;;;;;;;7.07;4.27;;;;;;;30.65;36.10;100954.25;5037783;28;20166;-75
2022/06/30 08:15:22;;;;;;;7.07;4.63;;;;;;;31.78;33.62;100944.16;5040718;28;20292;-74
2022/06/30 08:17:47;;;;;;;7.87;4.67;;;;;;;33.82;30.53;100943.97;5049494;28;20188;-74
2022/06/30 08:20:13;;;;;;;5.60;4.80;;;;;;;33.54;30.84;100938.22;5057841;28;20169;-73
2022/06/30 08:22:38;;;;;;;7.13;4.63;;;;;;;32.50;31.91;100944.91;5060283;28;20538;-72
2022/06/30 08:25:04;;;;;;;10.83;4.50;;;;;;;32.70;32.02;100938.78;5047016;28;20489;-72
2022/06/30 08:27:30;;;;;;;7.57;4.87;;;;;;;31.56;33.79;100939.53;5048555;28;20189;-72
2022/06/30 08:29:55;;;;;;;5.23;4.73;;;;;;;33.40;30.88;100928.53;5058727;28;20182;-80
2022/06/30 08:32:22;;;;;;;7.43;4.70;;;;;;;32.65;31.57;100932.00;5059468;28;20166;-75
2022/06/30 08:34:48;;;;;;;6.10;4.83;;;;;;;33.20;30.36;100934.75;5061902;28;20448;-73
2022/06/30 08:37:13;;;;;;;4.93;4.43;;;;;;;33.14;31.03;100924.44;5060724;28;20435;-75
2022/06/30 08:42:23;;;;;;;7.90;4.83;;;;;;;33.78;29.74;100926.31;5058096;28;20180;-74
2022/06/30 08:45:13;;;;;;;7.43;4.60;;;;;;;34.18;30.50;100920.13;5056639;28;20498;-73
2022/06/30 08:47:36;;;;;;;5.13;4.63;;;;;;;33.90;29.53;100927.94;5049034;28;20854;-75
2022/06/30 08:50:01;;;;;;;4.90;4.33;;;;;;;33.08;30.91;100915.00;5051986;28;20467;-75
2022/06/30 08:52:28;;;;;;;5.07;4.57;;;;;;;33.60;29.40;100911.63;5052098;28;20436;-72
2022/06/30 08:54:54;;;;;;;4.80;4.40;;;;;;;32.73;30.79;100907.97;5061061;28;20176;-72
2022/06/30 08:57:20;;;;;;;6.00;4.23;;;;;;;33.49;28.97;100909.84;5052001;28;20433;-71
2022/06/30 08:59:45;;;;;;;5.27;4.87;;;;;;;32.78;29.92;100905.75;5047017;28;20186;-72
2022/06/30 09:02:11;;;;;;;9.20;4.70;;;;;;;33.37;29.83;100892.84;5053489;28;20457;-72
2022/06/30 09:04:36;;;;;;;5.40;4.70;;;;;;;32.63;30.57;100898.91;5051599;28;20335;-73
2022/06/30 09:07:02;;;;;;;5.07;4.67;;;;;;;32.85;30.67;100898.84;5046148;28;20446;-73
2022/06/30 09:09:27;;;;;;;5.00;4.33;;;;;;;33.03;30.81;100888.41;5046355;28;20182;-75
2022/06/30 09:11:54;;;;;;;4.90;4.50;;;;;;;31.70;32.08;100889.97;5055140;28;20248;-74
2022/06/30 09:14:33;;;;;;;5.20;4.53;;;;;;;33.29;30.37;100876.38;5059577;28;20478;-74
2022/06/30 09:16:59;;;;;;;5.33;4.80;;;;;;;32.35;31.28;100876.84;5057544;28;20509;-72
2022/06/30 09:19:25;;;;;;;6.27;4.60;;;;;;;33.10;30.24;100877.94;5058060;28;20474;-72
2022/06/30 09:22:03;;;;;;;7.80;4.67;;;;;;;32.86;30.72;100870.88;5054255;28;20240;-71
2022/06/30 09:24:28;;;;;;;4.70;4.30;;;;;;;33.46;29.38;100880.38;5056907;28;20507;-71
2022/06/30 09:27:17;;;;;;;8.03;4.47;;;;;;;33.89;29.05;100868.59;5046757;28;20448;-72
2022/06/30 09:29:58;;;;;;;5.53;4.50;;;;;;;32.19;31.20;100867.28;5054743;28;20498;-71
2022/06/30 09:32:23;;;;;;;4.80;4.30;;;;;;;33.06;29.39;100855.72;5048346;28;20443;-73
2022/06/30 09:34:50;;;;;;;5.30;4.27;;;;;;;32.60;30.15;100861.34;5055054;28;20843;-75
2022/06/30 09:37:23;;;;;;;8.07;4.30;;;;;;;32.20;31.26;100866.28;5058759;28;20459;-75
2022/06/30 09:39:51;;;;;;;4.63;4.20;;;;;;;31.11;32.19;100864.78;5052340;28;20702;-71
2022/06/30 09:42:44;;;;;;;4.67;4.27;;;;;;;33.34;29.91;100857.94;5055735;28;20506;-72
2022/06/30 09:45:11;;;;;;;6.50;4.40;;;;;;;32.96;30.12;100864.72;5048079;28;20476;-71
2022/06/30 09:47:38;;;;;;;4.50;4.10;;;;;;;32.13;29.96;100861.50;5058772;28;20427;-71
2022/06/30 09:50:06;;;;;;;5.63;4.00;;;;;;;32.49;29.45;100856.81;5058289;28;20459;-71
2022/06/30 09:52:32;;;;;;;4.97;4.47;;;;;;;29.80;33.26;100858.88;5056194;28;20506;-70
2022/06/30 09:55:06;;;;;;;8.63;4.67;;;;;;;31.36;32.09;100850.28;5058211;28;20663;-71
2022/06/30 09:57:52;;;;;;;6.43;4.40;;;;;;;32.06;31.46;100850.34;5058019;28;20519;-70
2022/06/30 10:00:18;;;;;;;7.10;4.30;;;;;;;33.22;29.65;100839.06;5061346;28;20494;-69
2022/06/30 10:02:48;;;;;;;5.50;4.63;;;;;;;33.58;29.06;100850.47;5060330;28;20423;-71
2022/06/30 10:05:15;;;;;;;4.80;4.30;;;;;;;34.24;27.91;100853.78;5058441;28;20455;-72
2022/06/30 10:07:41;;;;;;;5.40;4.13;;;;;;;33.04;28.74;100849.59;5058794;28;20428;-71
2022/06/30 10:10:14;;;;;;;7.83;4.40;;;;;;;34.46;27.40;100841.06;5058803;28;20825;-71
2022/06/30 10:12:41;;;;;;;4.17;3.87;;;;;;;31.53;31.41;100856.25;5054827;28;20692;-70
2022/06/30 10:15:08;;;;;;;4.30;3.87;;;;;;;33.00;28.87;100850.84;5010050;28;1178107;-70
2022/06/30 10:17:35;;;;;;;6.30;4.10;;;;;;;32.20;30.59;100850.09;5054036;28;20814;-69
2022/06/30 10:20:01;;;;;;;4.60;4.13;;;;;;;33.72;28.90;100845.66;5057061;28;20502;-70
2022/06/30 10:22:28;;;;;;;5.63;4.10;;;;;;;33.61;28.73;100848.47;5057116;28;20490;-70
2022/06/30 10:24:55;;;;;;;5.10;4.60;;;;;;;32.51;30.69;100849.47;5058614;28;20639;-69
2022/06/30 10:27:21;;;;;;;4.67;4.10;;;;;;;32.01;31.50;100850.69;5058983;28;20453;-70
2022/06/30 10:29:55;;;;;;;4.33;3.93;;;;;;;32.83;30.29;100854.09;5057563;28;20605;-70
2022/06/30 10:32:43;;;;;;;4.53;4.13;;;;;;;32.96;29.91;100846.66;5058510;28;20691;-70
2022/06/30 10:35:30;;;;;;;4.97;4.40;;;;;;;32.38;31.05;100849.59;5059389;28;20694;-70
2022/06/30 10:38:20;;;;;;;6.37;4.60;;;;;;;33.55;29.81;100845.28;5059379;28;20541;-70
2022/06/30 10:41:11;;;;;;;5.03;4.63;;;;;;;33.64;29.60;100837.38;5059046;28;20446;-70
2022/06/30 10:44:05;;;;;;;6.57;4.30;;;;;;;32.53;30.67;100848.34;5057947;28;20458;-70
2022/06/30 10:46:31;;;;;;;5.33;4.47;;;;;;;32.67;30.32;100841.81;5059316;28;20478;-70
2022/06/30 10:48:57;;;;;;;5.80;4.77;;;;;;;33.63;29.54;100835.69;5053778;28;20837;-70
2022/06/30 10:51:23;;;;;;;5.53;4.47;;;;;;;34.05;29.22;100847.31;5039399;28;20413;-70
2022/06/30 10:53:56;;;;;;;5.33;4.13;;;;;;;31.86;31.71;100846.53;5039364;28;20197;-70
2022/06/30 10:56:23;;;;;;;4.83;4.37;;;;;;;32.43;31.27;100839.28;5038914;28;20463;-70
2022/06/30 10:59:10;;;;;;;5.33;4.33;;;;;;;34.27;29.09;100831.00;5038342;28;20433;-73
2022/06/30 11:01:36;;;;;;;5.10;4.60;;;;;;;31.53;32.91;100850.84;5038924;28;20417;-71
2022/06/30 11:04:03;;;;;;;4.70;4.30;;;;;;;33.65;30.00;100837.28;5038642;28;20456;-71
2022/06/30 11:06:54;;;;;;;5.27;4.80;;;;;;;33.45;30.16;100836.28;5042158;28;20424;-69
2022/06/30 11:09:44;;;;;;;5.03;4.50;;;;;;;32.78;31.71;100838.25;5038043;28;20413;-70
2022/06/30 11:12:11;;;;;;;5.10;4.70;;;;;;;33.15;31.14;100828.91;5038636;28;20409;-70
2022/06/30 11:14:36;;;;;;;6.40;5.10;;;;;;;30.77;34.33;100844.88;5038219;28;20416;-70
2022/06/30 11:17:13;;;;;;;5.67;5.17;;;;;;;30.70;35.15;100828.31;5038893;28;20440;-70
2022/06/30 11:19:38;;;;;;;5.00;4.60;;;;;;;33.20;30.82;100816.72;5045012;28;20174;-70
2022/06/30 11:22:05;;;;;;;5.30;4.80;;;;;;;33.38;30.93;100819.75;5058299;28;20431;-70
2022/06/30 11:24:31;;;;;;;5.33;4.83;;;;;;;31.53;33.59;100819.38;5055370;28;20534;-70
2022/06/30 11:29:41;;;;;;;5.30;4.80;;;;;;;30.05;36.10;100827.59;5037821;28;20841;-71
2022/06/30 11:32:06;;;;;;;6.07;5.47;;;;;;;30.64;35.83;100821.56;5038071;28;20421;-72
2022/06/30 11:34:36;;;;;;;5.60;5.20;;;;;;;30.13;36.25;100821.69;5038248;28;20178;-70
2022/06/30 11:37:01;;;;;;;5.77;5.27;;;;;;;31.66;33.61;100807.66;5038164;28;20174;-71
2022/06/30 11:39:28;;;;;;;5.90;5.50;;;;;;;31.35;33.61;100815.41;5038522;28;20793;-69
2022/06/30 11:42:03;;;;;;;5.83;5.33;;;;;;;31.00;35.14;100811.72;5038122;28;20265;-70
2022/06/30 11:44:39;;;;;;;6.20;5.70;;;;;;;31.37;34.08;100806.22;5037707;28;20471;-70